Time;durP1;ratioP1;P1;durP2;ratioP2;P2;SDS_P1;SDS_P2;PMS_P1;PMS_P2;Temp;Humidity;BMP_temperature;BMP_pressure;BME280_temperature;BME280_humidity;BME280_pressure;Samples;Min_cycle;Max_cycle;Signal;HPM_P1;HPM_P2
2022/11/01 00:00:25;;;;;;;8.40;7.60;;;15.20;99.90;;;;;;933987;151;27349;-81
2022/11/01 00:02:52;;;;;;;8.08;7.12;;;15.20;99.90;;;;;;934793;150;27388;-81
2022/11/01 00:05:18;;;;;;;8.08;7.03;;;15.30;99.90;;;;;;932323;150;27438;-80
2022/11/01 00:07:45;;;;;;;8.30;7.50;;;15.30;99.90;;;;;;934341;151;27381;-81
2022/11/01 00:10:12;;;;;;;8.18;7.47;;;15.30;99.90;;;;;;933021;151;27342;-81
2022/11/01 00:12:38;;;;;;;7.53;6.78;;;15.40;99.90;;;;;;932811;152;27373;-80
2022/11/01 00:15:05;;;;;;;8.43;7.62;;;15.40;99.90;;;;;;932419;151;27319;-80
2022/11/01 00:17:31;;;;;;;8.83;8.03;;;15.40;99.90;;;;;;933642;150;27400;-81
2022/11/01 00:19:58;;;;;;;7.85;7.05;;;15.50;99.90;;;;;;933747;151;27273;-81
2022/11/01 00:22:25;;;;;;;7.87;7.08;;;15.50;99.90;;;;;;934537;151;27291;-81
2022/11/01 00:24:51;;;;;;;7.90;7.10;;;15.50;99.90;;;;;;935163;150;27439;-81
2022/11/01 00:27:19;;;;;;;7.85;7.15;;;15.50;99.90;;;;;;935799;151;27448;-81
2022/11/01 00:29:44;;;;;;;8.98;8.08;;;15.50;99.90;;;;;;933928;151;27309;-81
2022/11/01 00:32:11;;;;;;;9.95;7.92;;;15.50;99.90;;;;;;934269;151;27336;-80
2022/11/01 00:34:38;;;;;;;9.05;8.18;;;15.50;99.90;;;;;;933551;151;27378;-81
2022/11/01 00:37:04;;;;;;;7.95;7.15;;;15.60;99.90;;;;;;933570;151;27461;-81
2022/11/01 00:39:31;;;;;;;7.85;7.05;;;15.60;99.90;;;;;;933990;151;27453;-81
2022/11/01 00:41:57;;;;;;;7.55;6.85;;;15.60;99.90;;;;;;931777;150;27294;-81
2022/11/01 00:44:24;;;;;;;7.35;6.67;;;15.60;99.90;;;;;;932714;150;27929;-81
2022/11/01 00:46:51;;;;;;;8.58;7.15;;;15.60;99.90;;;;;;932863;150;27356;-80
2022/11/01 00:49:17;;;;;;;7.33;6.60;;;15.60;99.90;;;;;;935000;151;27408;-81
2022/11/01 00:51:44;;;;;;;8.13;7.25;;;15.60;99.90;;;;;;934583;152;27882;-81
2022/11/01 00:54:10;;;;;;;8.58;7.78;;;15.60;99.90;;;;;;933357;150;27331;-81
2022/11/01 00:56:37;;;;;;;8.25;7.08;;;15.60;99.90;;;;;;933982;150;27296;-81
2022/11/01 00:59:03;;;;;;;8.05;7.25;;;15.60;99.90;;;;;;934151;150;27358;-81
2022/11/01 01:01:31;;;;;;;8.88;7.97;;;15.60;99.90;;;;;;934689;152;27446;-81
2022/11/01 01:03:57;;;;;;;8.38;7.47;;;15.60;99.90;;;;;;934655;151;27343;-81
2022/11/01 01:06:23;;;;;;;8.08;7.28;;;15.60;99.90;;;;;;933063;150;27372;-80
2022/11/01 01:08:50;;;;;;;7.60;6.78;;;15.60;99.90;;;;;;933681;151;27282;-81
2022/11/01 01:11:16;;;;;;;8.58;7.47;;;15.60;99.90;;;;;;932746;150;27331;-81
2022/11/01 01:13:43;;;;;;;11.20;7.40;;;15.50;99.90;;;;;;935352;152;27415;-81
2022/11/01 01:16:10;;;;;;;8.35;7.03;;;15.50;99.90;;;;;;934997;150;27320;-81
2022/11/01 01:18:36;;;;;;;8.23;7.37;;;15.50;99.90;;;;;;932895;150;27351;-81
2022/11/01 01:21:03;;;;;;;9.13;7.62;;;15.50;99.90;;;;;;931663;151;27314;-81
2022/11/01 01:23:29;;;;;;;7.28;6.60;;;15.50;99.90;;;;;;933945;150;27350;-80
2022/11/01 01:25:56;;;;;;;11.38;6.90;;;15.50;99.90;;;;;;934608;150;27382;-81
2022/11/01 01:28:23;;;;;;;7.75;6.92;;;15.50;99.90;;;;;;933073;152;27348;-81
2022/11/01 01:30:49;;;;;;;7.62;6.92;;;15.50;99.90;;;;;;934198;151;27463;-81
2022/11/01 01:33:16;;;;;;;7.17;6.55;;;15.50;99.90;;;;;;932721;151;27383;-81
2022/11/01 01:35:43;;;;;;;7.62;6.83;;;15.50;99.90;;;;;;934498;150;27335;-81
2022/11/01 01:38:09;;;;;;;8.30;6.85;;;15.50;99.90;;;;;;933766;152;27318;-81
2022/11/01 01:40:36;;;;;;;8.55;7.75;;;15.50;99.90;;;;;;933823;152;27310;-81
2022/11/01 01:43:02;;;;;;;7.42;6.60;;;15.60;99.90;;;;;;934042;151;27346;-81
2022/11/01 01:45:35;;;;;;;7.12;6.50;;;15.60;99.90;;;;;;919051;152;27382;-81
2022/11/01 01:48:01;;;;;;;7.50;6.80;;;15.60;99.90;;;;;;919336;152;27551;-81
2022/11/01 01:50:28;;;;;;;7.17;6.08;;;15.60;99.90;;;;;;932854;151;27279;-81
2022/11/01 01:53:09;;;;;;;6.95;6.12;;;15.60;99.90;;;;;;934864;151;27287;-80
2022/11/01 01:55:36;;;;;;;6.78;6.10;;;15.60;99.90;;;;;;935301;150;27335;-81
2022/11/01 01:58:03;;;;;;;7.28;6.35;;;15.60;99.90;;;;;;934838;150;27438;-80
2022/11/01 02:00:29;;;;;;;7.70;6.47;;;15.60;99.90;;;;;;933803;151;27347;-80
2022/11/01 02:02:56;;;;;;;7.03;6.33;;;15.60;99.90;;;;;;932157;151;27316;-81
2022/11/01 02:05:34;;;;;;;7.25;6.65;;;15.60;99.90;;;;;;935203;152;27413;-81
2022/11/01 02:08:01;;;;;;;7.83;7.03;;;15.60;99.90;;;;;;934243;151;27332;-81
2022/11/01 02:10:28;;;;;;;7.25;6.37;;;15.60;99.90;;;;;;933807;150;27432;-80
2022/11/01 02:12:54;;;;;;;7.33;6.62;;;15.60;99.90;;;;;;934558;152;27345;-80
2022/11/01 02:15:21;;;;;;;7.22;6.62;;;15.60;99.90;;;;;;934307;150;27357;-81
2022/11/01 02:18:08;;;;;;;7.12;6.42;;;15.60;99.90;;;;;;933603;150;27722;-81
2022/11/01 02:20:35;;;;;;;6.85;6.15;;;15.60;99.90;;;;;;932512;151;27360;-81
2022/11/01 02:23:10;;;;;;;7.12;6.10;;;15.60;99.90;;;;;;932465;150;27394;-81
2022/11/01 02:26:08;;;;;;;6.40;5.75;;;15.60;99.90;;;;;;933152;150;27340;-80
2022/11/01 02:29:01;;;;;;;7.15;6.47;;;15.60;99.90;;;;;;932961;152;27350;-80
2022/11/01 02:31:34;;;;;;;6.47;5.83;;;15.60;99.90;;;;;;937706;152;27331;-80
2022/11/01 02:34:06;;;;;;;7.47;6.25;;;15.60;99.90;;;;;;921937;152;27341;-80
2022/11/01 02:36:35;;;;;;;6.90;6.15;;;15.60;99.90;;;;;;932087;150;27495;-81
2022/11/01 02:39:10;;;;;;;7.08;6.40;;;15.60;99.90;;;;;;938229;149;28905;-81
2022/11/01 02:41:40;;;;;;;8.60;5.72;;;15.60;99.90;;;;;;936688;152;27433;-81
2022/11/01 02:44:09;;;;;;;7.72;6.35;;;15.60;99.90;;;;;;935614;152;27351;-81
2022/11/01 02:49:23;;;;;;;6.53;5.42;;;15.60;99.90;;;;;;934960;152;27388;-81
2022/11/01 02:51:50;;;;;;;5.85;5.17;;;15.60;99.90;;;;;;932473;152;27416;-80
2022/11/01 02:54:19;;;;;;;6.80;6.10;;;15.60;99.90;;;;;;932105;152;27309;-80
2022/11/01 02:56:46;;;;;;;6.83;6.12;;;15.70;99.90;;;;;;934228;150;27467;-80
2022/11/01 02:59:12;;;;;;;7.47;6.05;;;15.70;99.90;;;;;;931877;152;27365;-80
2022/11/01 03:01:39;;;;;;;6.10;5.45;;;15.70;99.90;;;;;;932106;150;27427;-80
2022/11/01 03:04:05;;;;;;;7.80;6.90;;;15.70;99.90;;;;;;932864;152;27336;-80
2022/11/01 03:06:35;;;;;;;6.95;5.78;;;15.70;99.90;;;;;;932650;150;27473;-80
2022/11/01 03:09:04;;;;;;;6.45;5.85;;;15.70;99.90;;;;;;934012;152;27353;-81
2022/11/01 03:11:46;;;;;;;7.65;5.72;;;15.70;99.90;;;;;;934026;150;27438;-80
2022/11/01 03:14:15;;;;;;;6.28;5.65;;;15.70;99.90;;;;;;933670;151;27327;-80
2022/11/01 03:16:44;;;;;;;6.72;6.10;;;15.80;99.90;;;;;;932767;152;27960;-80
2022/11/01 03:19:39;;;;;;;6.03;5.42;;;15.80;99.90;;;;;;934560;152;27372;-80
2022/11/01 03:22:14;;;;;;;6.45;5.25;;;15.80;99.90;;;;;;932595;151;27379;-80
2022/11/01 03:28:03;;;;;;;7.22;5.50;;;15.80;99.90;;;;;;933757;152;27470;-81
2022/11/01 03:30:29;;;;;;;6.17;5.53;;;15.80;99.90;;;;;;934459;150;27480;-81
2022/11/01 03:32:56;;;;;;;6.42;5.40;;;15.80;99.90;;;;;;933460;150;27296;-81
2022/11/01 03:35:23;;;;;;;5.87;5.12;;;15.80;99.90;;;;;;934101;150;27369;-82
2022/11/01 03:37:49;;;;;;;5.92;5.33;;;15.80;99.90;;;;;;931885;152;27405;-82
2022/11/01 03:40:16;;;;;;;5.20;4.70;;;15.80;99.90;;;;;;934244;152;27429;-82
2022/11/01 03:42:42;;;;;;;8.28;5.35;;;15.80;99.90;;;;;;934536;150;27364;-82
2022/11/01 03:45:09;;;;;;;5.78;5.28;;;15.90;99.90;;;;;;932862;152;27323;-82
2022/11/01 03:47:36;;;;;;;7.10;5.72;;;15.90;99.90;;;;;;933113;152;27453;-82
2022/11/01 03:50:20;;;;;;;8.00;5.60;;;15.90;99.90;;;;;;935140;152;27348;-82
2022/11/01 03:52:47;;;;;;;6.70;4.95;;;16.00;99.90;;;;;;934947;152;27339;-82
2022/11/01 03:55:20;;;;;;;5.17;4.62;;;16.00;99.90;;;;;;933967;151;27373;-82
2022/11/01 03:57:49;;;;;;;7.45;4.97;;;16.00;99.90;;;;;;932511;151;27369;-82
2022/11/01 04:00:16;;;;;;;6.00;5.40;;;16.00;99.90;;;;;;935022;150;27428;-82
2022/11/01 04:02:42;;;;;;;5.67;5.00;;;16.10;99.90;;;;;;931021;152;27438;-82
2022/11/01 04:05:09;;;;;;;6.87;4.75;;;16.10;99.90;;;;;;934876;150;27321;-82
2022/11/01 04:07:35;;;;;;;4.55;4.15;;;16.10;99.90;;;;;;933896;152;27922;-82
2022/11/01 04:10:02;;;;;;;6.62;4.47;;;16.20;99.90;;;;;;932936;152;27453;-82
2022/11/01 04:12:29;;;;;;;6.25;4.45;;;16.20;99.90;;;;;;934224;152;28059;-82
2022/11/01 04:20:33;;;;;;;4.35;3.95;;;16.30;99.90;;;;;;918840;155;27398;-82
2022/11/01 04:23:03;;;;;;;8.63;4.65;;;16.40;99.90;;;;;;933443;151;28404;-82
2022/11/01 04:25:29;;;;;;;5.62;4.12;;;16.40;99.90;;;;;;929493;152;27372;-82
2022/11/01 04:27:56;;;;;;;5.95;4.10;;;16.50;99.90;;;;;;933686;151;27364;-82
2022/11/01 04:30:22;;;;;;;4.87;3.77;;;16.50;99.90;;;;;;918705;152;27889;-82
2022/11/01 04:32:49;;;;;;;5.22;4.08;;;16.60;99.90;;;;;;935743;152;27508;-82
2022/11/01 04:35:16;;;;;;;7.87;4.92;;;16.60;99.90;;;;;;932853;150;27339;-82
2022/11/01 04:37:42;;;;;;;6.00;3.95;;;16.70;99.90;;;;;;934853;151;27351;-82
2022/11/01 04:40:09;;;;;;;6.95;4.12;;;16.70;99.90;;;;;;937764;152;27328;-82
2022/11/01 04:42:35;;;;;;;5.40;3.95;;;16.80;99.90;;;;;;937235;150;27345;-82
2022/11/01 04:45:02;;;;;;;5.40;4.35;;;16.80;99.90;;;;;;936427;152;27383;-82
2022/11/01 04:47:29;;;;;;;4.92;4.17;;;16.80;99.90;;;;;;937488;152;27449;-82
2022/11/01 04:49:55;;;;;;;5.03;4.08;;;16.80;99.90;;;;;;936747;152;27329;-82
2022/11/01 04:52:22;;;;;;;6.00;4.42;;;16.90;99.90;;;;;;935323;151;27338;-82
2022/11/01 04:54:48;;;;;;;5.20;3.47;;;16.90;99.90;;;;;;938340;152;27321;-82
2022/11/01 04:57:24;;;;;;;4.80;4.30;;;16.90;99.90;;;;;;936843;152;27364;-82
2022/11/01 04:59:50;;;;;;;4.33;3.92;;;16.90;99.90;;;;;;936086;150;27870;-82
2022/11/01 05:02:17;;;;;;;7.05;4.20;;;16.90;99.90;;;;;;935715;152;27831;-82
2022/11/01 05:04:44;;;;;;;8.80;4.87;;;16.90;99.90;;;;;;935250;151;27354;-82
2022/11/01 05:07:10;;;;;;;6.58;4.10;;;16.90;99.90;;;;;;936533;151;27362;-82
2022/11/01 05:09:37;;;;;;;7.05;4.20;;;16.90;99.90;;;;;;935710;152;27380;-82
2022/11/01 05:12:03;;;;;;;5.28;4.17;;;16.90;99.90;;;;;;937169;150;27456;-82
2022/11/01 05:14:30;;;;;;;6.05;4.05;;;16.90;99.90;;;;;;935217;152;27326;-82
2022/11/01 05:16:57;;;;;;;7.97;4.42;;;16.90;99.90;;;;;;936452;152;27349;-82
2022/11/01 05:19:23;;;;;;;4.30;3.90;;;16.90;99.90;;;;;;935551;152;27386;-82
2022/11/01 05:21:50;;;;;;;4.90;3.75;;;16.90;99.90;;;;;;936466;152;27445;-82
2022/11/01 05:24:17;;;;;;;3.92;3.62;;;16.90;99.90;;;;;;936105;150;27465;-82
2022/11/01 05:26:43;;;;;;;5.92;3.98;;;17.00;99.90;;;;;;934906;151;27393;-82
2022/11/01 05:29:10;;;;;;;4.03;3.55;;;17.00;99.90;;;;;;935920;152;27331;-82
2022/11/01 05:31:36;;;;;;;5.72;3.87;;;17.00;99.90;;;;;;936628;151;27387;-82
2022/11/01 05:34:03;;;;;;;5.35;4.05;;;17.00;99.90;;;;;;937609;150;27425;-82
2022/11/01 05:36:29;;;;;;;4.75;4.05;;;17.10;99.90;;;;;;937445;152;27364;-82
2022/11/01 05:38:56;;;;;;;6.20;4.30;;;17.10;99.90;;;;;;928019;152;27377;-82
2022/11/01 05:41:22;;;;;;;5.95;4.00;;;17.10;99.90;;;;;;933674;151;27381;-82
2022/11/01 05:43:49;;;;;;;4.35;3.95;;;17.10;99.90;;;;;;906735;157;27311;-82
2022/11/01 05:46:16;;;;;;;5.58;3.98;;;17.10;99.90;;;;;;928366;151;27515;-82
2022/11/01 05:48:42;;;;;;;8.65;4.05;;;17.20;99.90;;;;;;922936;151;27437;-82
2022/11/01 05:51:09;;;;;;;5.37;4.00;;;17.20;99.90;;;;;;910070;154;27347;-82
2022/11/01 05:53:35;;;;;;;4.30;3.62;;;17.20;99.90;;;;;;927209;153;27659;-82
2022/11/01 05:56:02;;;;;;;4.10;3.70;;;17.20;99.90;;;;;;929043;151;27340;-82
2022/11/01 05:58:29;;;;;;;4.55;4.15;;;17.20;99.90;;;;;;928912;153;27448;-82
2022/11/01 06:00:58;;;;;;;4.78;3.92;;;17.30;99.90;;;;;;927976;151;27387;-83
2022/11/01 06:03:25;;;;;;;5.78;3.65;;;17.30;99.90;;;;;;934336;151;27354;-82
2022/11/01 06:05:51;;;;;;;4.65;3.62;;;17.30;99.90;;;;;;918082;155;27439;-82
2022/11/01 06:08:18;;;;;;;5.42;3.75;;;17.30;99.90;;;;;;934528;152;27257;-82
2022/11/01 06:10:45;;;;;;;5.58;3.30;;;17.30;99.90;;;;;;920237;152;27435;-81
2022/11/01 06:13:11;;;;;;;5.30;3.42;;;17.30;99.90;;;;;;924012;155;27357;-81
2022/11/01 06:15:38;;;;;;;4.90;3.70;;;17.30;99.90;;;;;;910517;154;27391;-82
2022/11/01 06:18:04;;;;;;;4.83;3.08;;;17.40;99.90;;;;;;928270;151;27317;-82
2022/11/01 06:20:31;;;;;;;5.78;3.55;;;17.30;99.90;;;;;;934272;151;27292;-82
2022/11/01 06:22:57;;;;;;;5.60;3.08;;;17.30;99.90;;;;;;916688;152;27337;-82
2022/11/01 06:25:24;;;;;;;4.87;3.15;;;17.40;99.90;;;;;;918958;155;27391;-81
2022/11/01 06:27:51;;;;;;;5.65;3.67;;;17.30;99.90;;;;;;933516;152;27385;-81
2022/11/01 06:30:17;;;;;;;3.62;3.30;;;17.40;99.90;;;;;;933713;150;27351;-81
2022/11/01 06:32:44;;;;;;;5.72;3.50;;;17.30;99.90;;;;;;934294;150;27343;-81
2022/11/01 06:35:10;;;;;;;4.62;3.67;;;17.40;99.90;;;;;;933645;150;27349;-81
2022/11/01 06:37:37;;;;;;;4.95;3.87;;;17.30;99.90;;;;;;931935;151;27352;-81
2022/11/01 06:40:04;;;;;;;4.50;3.40;;;17.40;99.90;;;;;;924800;151;27433;-81
2022/11/01 06:42:30;;;;;;;6.12;3.70;;;17.40;99.90;;;;;;935666;152;27361;-82
2022/11/01 06:44:57;;;;;;;5.15;3.87;;;17.40;99.90;;;;;;930168;150;27355;-82
2022/11/01 06:47:23;;;;;;;4.55;3.77;;;17.40;99.90;;;;;;934919;150;27423;-82
2022/11/01 06:49:50;;;;;;;4.45;3.30;;;17.50;99.90;;;;;;939378;151;27930;-82
2022/11/01 06:52:17;;;;;;;4.28;3.50;;;17.50;99.90;;;;;;930177;150;27465;-81
2022/11/01 06:54:43;;;;;;;4.72;3.75;;;17.50;99.90;;;;;;930580;150;27495;-82
2022/11/01 06:57:10;;;;;;;4.22;3.67;;;17.50;99.90;;;;;;929768;151;27471;-81
2022/11/01 06:59:36;;;;;;;6.53;4.42;;;17.50;99.90;;;;;;929162;153;27372;-82
2022/11/01 07:02:03;;;;;;;5.50;3.72;;;17.50;99.90;;;;;;935919;151;27372;-81
2022/11/01 07:04:30;;;;;;;5.25;3.83;;;17.50;99.90;;;;;;928358;150;27455;-82
2022/11/01 07:06:56;;;;;;;4.47;3.75;;;17.50;99.90;;;;;;927262;153;28026;-82
2022/11/01 07:09:23;;;;;;;5.25;3.90;;;17.60;99.90;;;;;;927761;152;27368;-82
2022/11/01 07:11:49;;;;;;;4.17;3.40;;;17.60;99.90;;;;;;926530;153;27887;-82
2022/11/01 07:14:25;;;;;;;6.08;3.42;;;17.60;99.90;;;;;;927742;153;27858;-82
2022/11/01 07:16:42;;;;;;;4.28;3.30;;;17.60;99.90;;;;;;926694;151;27439;-82
2022/11/01 07:19:09;;;;;;;4.92;4.20;;;17.60;99.90;;;;;;927971;151;27456;-82
2022/11/01 07:21:36;;;;;;;4.47;4.08;;;17.60;99.90;;;;;;935691;153;27379;-82
2022/11/01 07:24:02;;;;;;;5.37;3.83;;;17.60;99.90;;;;;;937348;151;27352;-82
2022/11/01 07:26:29;;;;;;;5.33;4.15;;;17.60;99.90;;;;;;930604;150;27465;-82
2022/11/01 07:28:55;;;;;;;5.60;3.60;;;17.70;99.90;;;;;;931151;153;27381;-82
2022/11/01 07:31:32;;;;;;;;;;;;;;;;;;;;;
2022/11/01 07:33:49;;;;;;;4.33;3.47;;;17.70;99.90;;;;;;930132;150;27396;-82
2022/11/01 07:36:15;;;;;;;4.28;3.95;;;17.70;99.90;;;;;;948934;147;27337;-82
2022/11/01 07:38:42;;;;;;;5.75;3.37;;;17.70;99.90;;;;;;945445;147;27362;-82
2022/11/01 07:41:09;;;;;;;3.85;3.20;;;17.80;99.90;;;;;;932589;150;27440;-82
2022/11/01 07:43:38;;;;;;;3.75;3.27;;;17.80;99.90;;;;;;931599;151;27713;-82
2022/11/01 07:46:06;;;;;;;5.53;3.35;;;17.90;99.90;;;;;;932136;150;27356;-83
2022/11/01 07:48:28;;;;;;;4.37;3.80;;;17.90;99.90;;;;;;933459;150;27446;-82
2022/11/01 07:50:55;;;;;;;4.45;3.33;;;18.00;99.90;;;;;;933502;150;27283;-82
2022/11/01 07:53:21;;;;;;;4.08;3.17;;;18.20;99.90;;;;;;932468;150;27435;-83
2022/11/01 07:55:51;;;;;;;3.47;3.12;;;18.40;99.90;;;;;;933506;150;27659;-83
2022/11/01 07:58:14;;;;;;;4.55;3.15;;;18.60;99.90;;;;;;934217;151;27341;-83
2022/11/01 08:00:44;;;;;;;3.85;3.33;;;18.80;99.90;;;;;;934583;151;27439;-83
2022/11/01 08:03:18;;;;;;;3.75;3.00;;;18.90;99.90;;;;;;934683;151;27404;-83
2022/11/01 08:05:43;;;;;;;3.60;3.30;;;19.10;99.90;;;;;;933326;150;27335;-83
2022/11/01 08:08:10;;;;;;;3.12;2.83;;;19.10;99.90;;;;;;934092;151;27396;-82
2022/11/01 08:10:36;;;;;;;2.87;2.42;;;19.20;99.90;;;;;;932462;151;27332;-82
2022/11/01 08:13:21;;;;;;;3.52;3.15;;;19.30;99.90;;;;;;936762;150;27337;-82
2022/11/01 08:15:47;;;;;;;3.77;2.40;;;19.30;99.90;;;;;;934235;150;27286;-83
2022/11/01 08:18:14;;;;;;;2.75;2.40;;;19.30;99.90;;;;;;933655;151;27354;-82
2022/11/01 08:20:41;;;;;;;6.90;2.67;;;19.30;99.90;;;;;;933055;151;27350;-82
2022/11/01 08:23:07;;;;;;;3.77;2.92;;;19.30;99.90;;;;;;934223;150;27334;-82
2022/11/01 08:25:37;;;;;;;3.67;2.55;;;19.30;99.90;;;;;;933281;150;28140;-83
2022/11/01 08:28:03;;;;;;;2.87;2.62;;;19.30;99.90;;;;;;934383;151;27914;-82
2022/11/01 08:30:30;;;;;;;4.33;2.77;;;19.40;99.90;;;;;;934352;151;27442;-83
2022/11/01 08:32:59;;;;;;;4.00;2.42;;;19.50;99.90;;;;;;933640;151;27335;-82
2022/11/01 08:35:26;;;;;;;3.67;2.42;;;19.60;99.90;;;;;;935339;150;27482;-82
2022/11/01 08:38:02;;;;;;;;;;;;;;;;;;;;;
2022/11/01 08:40:19;;;;;;;3.12;2.83;;;19.70;99.90;;;;;;931574;149;27901;-82
2022/11/01 08:42:45;;;;;;;3.77;2.67;;;19.80;99.90;;;;;;934124;149;27369;-82
2022/11/01 08:45:12;;;;;;;3.72;2.62;;;19.80;99.90;;;;;;916227;152;27495;-82
2022/11/01 08:47:41;;;;;;;2.72;2.50;;;19.90;99.90;;;;;;924408;152;27561;-83
2022/11/01 08:50:05;;;;;;;3.55;2.70;;;19.90;99.90;;;;;;932104;150;28313;-83
2022/11/01 08:52:32;;;;;;;2.98;2.77;;;20.00;99.90;;;;;;916699;153;27487;-83
2022/11/01 08:54:58;;;;;;;3.15;2.52;;;20.10;99.90;;;;;;916886;152;27331;-83
2022/11/01 08:57:25;;;;;;;3.65;3.33;;;20.20;99.90;;;;;;917183;152;27356;-83
2022/11/01 08:59:51;;;;;;;3.37;2.87;;;20.30;99.90;;;;;;917606;154;27396;-83
2022/11/01 09:02:20;;;;;;;2.80;2.60;;;20.40;99.90;;;;;;916160;154;27787;-83
2022/11/01 09:04:45;;;;;;;2.70;2.50;;;20.50;99.90;;;;;;932532;150;27373;-83
2022/11/01 09:07:11;;;;;;;2.72;2.37;;;20.70;99.90;;;;;;924743;151;27350;-83
2022/11/01 09:09:38;;;;;;;2.87;2.35;;;20.80;99.90;;;;;;932788;150;27441;-83
2022/11/01 09:12:04;;;;;;;3.08;2.37;;;20.90;99.90;;;;;;935483;149;27303;-83
2022/11/01 09:14:31;;;;;;;2.10;2.00;;;21.00;99.90;;;;;;936110;149;27361;-83
2022/11/01 09:17:06;;;;;;;3.47;2.05;;;21.20;99.90;;;;;;934495;149;27335;-83
2022/11/01 09:19:24;;;;;;;4.67;2.20;;;21.30;99.90;;;;;;933241;149;27361;-83
2022/11/01 09:21:53;;;;;;;2.22;2.02;;;21.30;99.90;;;;;;934406;149;27356;-83
2022/11/01 09:24:17;;;;;;;3.17;2.22;;;21.40;99.90;;;;;;935396;149;27288;-83
2022/11/01 09:26:44;;;;;;;2.37;2.05;;;21.40;99.90;;;;;;936247;149;27360;-83
2022/11/01 09:29:11;;;;;;;2.65;2.22;;;21.40;99.90;;;;;;935292;149;27346;-83
2022/11/01 09:31:37;;;;;;;2.98;1.95;;;21.30;99.90;;;;;;933327;149;27426;-83
2022/11/01 09:34:04;;;;;;;2.20;2.00;;;21.30;99.90;;;;;;936563;149;27460;-83
2022/11/01 09:36:30;;;;;;;3.25;2.27;;;21.30;99.90;;;;;;935470;149;27364;-83
2022/11/01 09:38:58;;;;;;;2.98;2.15;;;21.20;99.90;;;;;;937131;149;27353;-83
2022/11/01 09:41:27;;;;;;;2.00;1.90;;;21.20;99.90;;;;;;940086;148;27898;-83
2022/11/01 09:43:53;;;;;;;2.25;1.75;;;21.20;99.90;;;;;;941099;148;27448;-83
2022/11/01 09:46:20;;;;;;;2.75;2.15;;;21.20;99.90;;;;;;923615;151;27349;-83
2022/11/01 09:48:46;;;;;;;3.83;1.95;;;21.30;99.90;;;;;;926441;151;27514;-83
2022/11/01 09:51:16;;;;;;;3.22;1.75;;;21.30;99.90;;;;;;926512;153;27502;-83
2022/11/01 09:53:42;;;;;;;2.10;1.50;;;21.30;99.90;;;;;;924075;151;27391;-83
2022/11/01 09:56:21;;;;;;;1.80;1.70;;;21.30;99.90;;;;;;926047;151;28333;-83
2022/11/01 09:58:50;;;;;;;1.67;1.57;;;21.30;99.10;;;;;;913404;153;28003;-83
2022/11/01 10:01:39;;;;;;;4.12;2.62;;;21.20;98.50;;;;;;924773;151;27492;-83
2022/11/01 10:04:26;;;;;;;2.70;1.62;;;21.20;98.00;;;;;;920445;151;27388;-83
2022/11/01 10:07:07;;;;;;;1.70;1.60;;;21.10;97.80;;;;;;934825;152;27457;-83
2022/11/01 10:09:37;;;;;;;1.92;1.62;;;21.10;97.60;;;;;;941482;148;27342;-83
2022/11/01 10:12:03;;;;;;;1.67;1.37;;;21.00;97.40;;;;;;927765;151;27368;-82
2022/11/01 10:14:30;;;;;;;2.02;1.42;;;20.90;97.20;;;;;;940145;148;27445;-83
2022/11/01 10:17:12;;;;;;;2.17;1.50;;;20.90;96.70;;;;;;923701;151;27404;-83
2022/11/01 10:19:38;;;;;;;2.72;1.40;;;20.90;96.40;;;;;;912465;153;28720;-83
2022/11/01 10:22:07;;;;;;;4.28;1.55;;;20.90;96.50;;;;;;930240;151;27345;-83
2022/11/01 10:24:52;;;;;;;2.27;1.20;;;20.90;96.20;;;;;;933574;150;27448;-83
2022/11/01 10:27:31;;;;;;;2.60;1.40;;;20.90;95.50;;;;;;931970;151;27744;-82
2022/11/01 10:30:00;;;;;;;1.67;1.20;;;20.90;94.60;;;;;;926174;151;27504;-82
2022/11/01 10:32:38;;;;;;;2.17;1.60;;;20.90;94.80;;;;;;926123;153;27846;-83
2022/11/01 10:35:25;;;;;;;2.72;1.75;;;20.90;94.30;;;;;;941510;148;27328;-82
2022/11/01 10:37:49;;;;;;;1.70;1.42;;;21.00;94.10;;;;;;940511;148;27364;-83
2022/11/01 10:40:16;;;;;;;1.65;1.55;;;21.00;93.80;;;;;;941679;148;27894;-82
2022/11/01 10:42:43;;;;;;;2.25;1.80;;;21.00;93.40;;;;;;935393;148;27408;-83
2022/11/01 10:45:15;;;;;;;1.40;1.30;;;21.00;93.00;;;;;;933191;150;27738;-83
2022/11/01 10:47:42;;;;;;;3.20;1.30;;;21.00;92.20;;;;;;934547;151;27417;-83
2022/11/01 10:50:20;;;;;;;3.30;1.20;;;21.00;92.00;;;;;;931970;151;27295;-82
2022/11/01 10:52:44;;;;;;;2.70;1.30;;;21.00;91.60;;;;;;929714;151;27358;-83
2022/11/01 10:55:07;;;;;;;0.90;0.90;;;21.10;90.90;;;;;;930584;150;27353;-83
2022/11/01 10:57:52;;;;;;;1.30;1.20;;;21.00;90.80;;;;;;933103;151;27323;-83
2022/11/01 11:00:19;;;;;;;2.40;1.30;;;21.00;90.90;;;;;;932562;151;27388;-83
2022/11/01 11:02:46;;;;;;;2.22;1.25;;;21.10;90.70;;;;;;935033;151;27314;-83
2022/11/01 11:05:15;;;;;;;1.77;1.15;;;21.10;90.30;;;;;;932679;150;27302;-83
2022/11/01 11:07:42;;;;;;;2.33;1.00;;;21.10;89.00;;;;;;921493;151;27400;-84
2022/11/01 11:10:17;;;;;;;1.15;1.05;;;21.10;85.90;;;;;;935059;151;28501;-84
2022/11/01 11:12:44;;;;;;;0.98;0.68;;;21.20;85.30;;;;;;934864;151;27284;-83
2022/11/01 11:15:10;;;;;;;1.42;0.78;;;21.20;85.20;;;;;;932380;150;27355;-84
2022/11/01 11:17:41;;;;;;;3.20;0.78;;;21.30;84.50;;;;;;933995;150;27447;-83
2022/11/01 11:20:06;;;;;;;2.10;1.25;;;21.30;83.40;;;;;;934796;150;27818;-83
2022/11/01 11:22:35;;;;;;;1.42;0.93;;;21.30;82.10;;;;;;933342;151;27436;-84
2022/11/01 11:25:13;;;;;;;1.55;0.68;;;21.40;81.20;;;;;;931956;150;27369;-83
2022/11/01 11:27:40;;;;;;;2.22;0.80;;;21.40;80.00;;;;;;932457;150;27332;-82
2022/11/01 11:30:07;;;;;;;3.05;0.80;;;21.40;78.90;;;;;;934168;150;27462;-84
2022/11/01 11:32:39;;;;;;;1.98;0.82;;;21.40;78.90;;;;;;934100;151;27360;-83
2022/11/01 11:35:05;;;;;;;1.07;0.80;;;21.50;78.10;;;;;;933565;150;27490;-83
2022/11/01 11:37:31;;;;;;;1.45;0.60;;;21.40;78.40;;;;;;932097;151;27341;-83
2022/11/01 11:39:58;;;;;;;2.10;1.10;;;21.50;78.40;;;;;;932950;151;27483;-84
2022/11/01 11:42:25;;;;;;;2.30;1.47;;;21.50;78.70;;;;;;931884;150;27360;-84
2022/11/01 11:44:54;;;;;;;1.77;1.22;;;21.50;78.30;;;;;;935290;149;27306;-83
2022/11/01 11:47:26;;;;;;;2.42;1.07;;;21.50;78.20;;;;;;936932;149;27430;-83
2022/11/01 11:49:52;;;;;;;0.75;0.75;;;21.60;78.20;;;;;;935765;149;27528;-83
2022/11/01 11:52:17;;;;;;;2.30;0.90;;;21.60;77.90;;;;;;931412;149;27324;-83
2022/11/01 11:54:43;;;;;;;1.95;0.90;;;21.60;77.80;;;;;;932220;149;27339;-84
2022/11/01 11:57:10;;;;;;;2.25;1.20;;;21.60;77.70;;;;;;913640;153;27500;-84
2022/11/01 11:59:39;;;;;;;4.03;0.93;;;21.60;77.30;;;;;;913556;153;27312;-84
2022/11/01 12:02:03;;;;;;;4.15;0.70;;;21.50;77.90;;;;;;910666;152;27385;-84
2022/11/01 12:04:48;;;;;;;;;;;;;;;;;;;;;
2022/11/01 12:07:10;;;;;;;2.60;1.30;;;21.40;77.40;;;;;;925657;152;27337;-84
2022/11/01 12:09:37;;;;;;;1.67;1.00;;;21.30;77.70;;;;;;932847;149;27382;-84
2022/11/01 12:12:07;;;;;;;2.77;1.20;;;21.30;77.90;;;;;;914959;154;27461;-84
2022/11/01 12:14:36;;;;;;;2.27;1.20;;;21.20;78.50;;;;;;915341;152;27386;-84
2022/11/01 12:17:02;;;;;;;5.22;1.57;;;21.20;78.60;;;;;;917635;152;27372;-84
2022/11/01 12:19:29;;;;;;;1.60;1.20;;;21.20;78.40;;;;;;915595;152;27364;-83
2022/11/01 12:22:01;;;;;;;2.92;1.37;;;21.10;77.90;;;;;;923525;152;27367;-83
2022/11/01 12:24:28;;;;;;;3.52;2.12;;;21.10;77.80;;;;;;932915;149;27473;-84
2022/11/01 12:26:57;;;;;;;1.67;1.50;;;21.00;77.40;;;;;;933651;149;27314;-84
2022/11/01 12:29:33;;;;;;;2.30;1.60;;;21.00;77.30;;;;;;933200;149;27343;-83
2022/11/01 12:31:59;;;;;;;3.65;2.00;;;21.00;76.80;;;;;;931971;149;27444;-83
2022/11/01 12:34:26;;;;;;;4.28;2.40;;;20.90;76.80;;;;;;929584;149;27770;-84
2022/11/01 12:36:57;;;;;;;4.85;2.10;;;20.90;76.80;;;;;;932892;149;28133;-84
2022/11/01 12:39:28;;;;;;;4.58;2.50;;;20.80;76.50;;;;;;932115;149;27495;-84
2022/11/01 12:42:02;;;;;;;3.27;1.82;;;20.80;76.90;;;;;;930410;149;27430;-84
2022/11/01 12:44:42;;;;;;;7.40;3.37;;;20.70;77.00;;;;;;921128;149;27441;-83
2022/11/01 12:47:32;;;;;;;6.75;3.60;;;20.70;76.70;;;;;;916230;153;27537;-83
2022/11/01 12:49:59;;;;;;;6.20;3.12;;;20.70;76.80;;;;;;919138;153;28339;-83
2022/11/01 12:52:32;;;;;;;11.57;4.70;;;20.70;76.90;;;;;;917648;153;27995;-84
2022/11/01 12:55:01;;;;;;;7.17;3.83;;;20.60;76.50;;;;;;886375;156;27346;-84
2022/11/01 12:57:30;;;;;;;2.50;1.75;;;20.60;75.90;;;;;;918405;154;27475;-84
2022/11/01 12:59:54;;;;;;;3.65;1.80;;;20.50;76.10;;;;;;919197;154;27791;-83
2022/11/01 13:02:48;;;;;;;2.55;1.67;;;20.50;75.30;;;;;;919528;153;27475;-83
2022/11/01 13:05:15;;;;;;;2.12;1.70;;;20.50;75.20;;;;;;912827;154;27426;-84
2022/11/01 13:07:54;;;;;;;1.75;1.42;;;20.50;75.00;;;;;;918874;153;27455;-84